sensor_id;sensor_type;location;lat;lon;timestamp;pressure;altitude;pressure_sealevel;temperature;humidity
27425;BME280;15244;49.088;11.886;2023-02-15T00:03:11;97204.75;;;4.47;53.40
27425;BME280;15244;49.088;11.886;2023-02-15T00:08:13;97195.06;;;4.46;53.93
27425;BME280;15244;49.088;11.886;2023-02-15T00:13:17;97197.78;;;4.46;53.75
27425;BME280;15244;49.088;11.886;2023-02-15T00:18:23;97202.56;;;4.49;53.34
27425;BME280;15244;49.088;11.886;2023-02-15T00:23:26;97193.97;;;4.47;54.11
27425;BME280;15244;49.088;11.886;2023-02-15T00:28:27;97187.44;;;4.48;53.60
27425;BME280;15244;49.088;11.886;2023-02-15T00:33:29;97191.25;;;4.47;53.32
27425;BME280;15244;49.088;11.886;2023-02-15T00:38:31;97185.84;;;4.47;54.28
27425;BME280;15244;49.088;11.886;2023-02-15T00:43:33;97183.44;;;4.45;54.04
27425;BME280;15244;49.088;11.886;2023-02-15T00:48:35;97176.75;;;4.43;54.03
27425;BME280;15244;49.088;11.886;2023-02-15T00:53:38;97175.19;;;4.42;53.99
27425;BME280;15244;49.088;11.886;2023-02-15T00:58:39;97180.09;;;4.40;53.70
27425;BME280;15244;49.088;11.886;2023-02-15T01:03:43;97170.19;;;4.35;53.59
27425;BME280;15244;49.088;11.886;2023-02-15T01:08:45;97166.22;;;4.32;53.91
27425;BME280;15244;49.088;11.886;2023-02-15T01:13:52;97160.34;;;4.30;53.49
27425;BME280;15244;49.088;11.886;2023-02-15T01:18:54;97163.97;;;4.26;53.31
27425;BME280;15244;49.088;11.886;2023-02-15T01:23:56;97165.38;;;4.23;53.37
27425;BME280;15244;49.088;11.886;2023-02-15T01:28:58;97162.19;;;4.21;53.08
27425;BME280;15244;49.088;11.886;2023-02-15T01:33:59;97149.59;;;4.17;53.52
27425;BME280;15244;49.088;11.886;2023-02-15T01:39:01;97153.72;;;4.14;53.58
27425;BME280;15244;49.088;11.886;2023-02-15T01:44:45;97138.63;;;4.13;52.86
27425;BME280;15244;49.088;11.886;2023-02-15T01:49:56;97138.91;;;4.11;53.51
27425;BME280;15244;49.088;11.886;2023-02-15T01:54:59;97128.75;;;4.08;53.65
27425;BME280;15244;49.088;11.886;2023-02-15T02:00:04;97126.34;;;4.07;53.42
27425;BME280;15244;49.088;11.886;2023-02-15T02:05:12;97110.47;;;4.05;53.13
27425;BME280;15244;49.088;11.886;2023-02-15T02:10:17;97111.56;;;4.04;53.36
27425;BME280;15244;49.088;11.886;2023-02-15T02:15:24;97101.88;;;4.03;53.42
27425;BME280;15244;49.088;11.886;2023-02-15T02:20:47;97097.09;;;4.00;53.67
27425;BME280;15244;49.088;11.886;2023-02-15T02:31:36;97089.31;;;3.99;52.90
27425;BME280;15244;49.088;11.886;2023-02-15T02:47:17;97079.88;;;3.87;53.30
27425;BME280;15244;49.088;11.886;2023-02-15T02:52:46;97071.28;;;3.85;53.03
27425;BME280;15244;49.088;11.886;2023-02-15T02:57:59;97070.78;;;3.83;53.56
27425;BME280;15244;49.088;11.886;2023-02-15T03:03:08;97081.75;;;3.87;53.52
27425;BME280;15244;49.088;11.886;2023-02-15T03:08:14;97080.16;;;3.86;53.34
27425;BME280;15244;49.088;11.886;2023-02-15T03:13:23;97072.38;;;3.84;53.26
27425;BME280;15244;49.088;11.886;2023-02-15T03:18:30;97075.88;;;3.85;53.48
27425;BME280;15244;49.088;11.886;2023-02-15T03:23:35;97068.88;;;3.84;53.33
27425;BME280;15244;49.088;11.886;2023-02-15T03:28:42;97073.00;;;3.81;53.43
27425;BME280;15244;49.088;11.886;2023-02-15T03:34:06;97076.81;;;3.80;53.36
27425;BME280;15244;49.088;11.886;2023-02-15T03:39:36;97077.09;;;3.79;53.45
27425;BME280;15244;49.088;11.886;2023-02-15T03:44:47;97073.91;;;3.77;53.41
27425;BME280;15244;49.088;11.886;2023-02-15T03:49:57;97073.09;;;3.76;53.59
27425;BME280;15244;49.088;11.886;2023-02-15T03:55:00;97063.44;;;3.75;53.58
27425;BME280;15244;49.088;11.886;2023-02-15T04:05:54;97058.97;;;3.71;53.29
27425;BME280;15244;49.088;11.886;2023-02-15T04:10:56;97058.47;;;3.68;53.34
27425;BME280;15244;49.088;11.886;2023-02-15T04:16:00;97050.66;;;3.67;53.50
27425;BME280;15244;49.088;11.886;2023-02-15T04:21:06;97071.94;;;3.68;53.54
27425;BME280;15244;49.088;11.886;2023-02-15T04:26:26;97065.75;;;3.68;53.26
27425;BME280;15244;49.088;11.886;2023-02-15T04:31:27;97066.53;;;3.68;53.64
27425;BME280;15244;49.088;11.886;2023-02-15T04:36:29;97066.53;;;3.68;53.48
27425;BME280;15244;49.088;11.886;2023-02-15T04:41:32;97070.34;;;3.67;53.22
27425;BME280;15244;49.088;11.886;2023-02-15T04:46:34;97076.84;;;3.66;53.79
27425;BME280;15244;49.088;11.886;2023-02-15T04:51:35;97072.72;;;3.69;53.79
27425;BME280;15244;49.088;11.886;2023-02-15T04:56:37;97075.13;;;3.71;53.79
27425;BME280;15244;49.088;11.886;2023-02-15T05:01:40;97066.53;;;3.68;53.51
27425;BME280;15244;49.088;11.886;2023-02-15T05:06:42;97067.34;;;3.69;53.63
27425;BME280;15244;49.088;11.886;2023-02-15T05:11:43;97067.97;;;3.66;53.62
27425;BME280;15244;49.088;11.886;2023-02-15T05:16:45;97060.97;;;3.65;53.43
27425;BME280;15244;49.088;11.886;2023-02-15T05:21:46;97058.56;;;3.63;53.46
27425;BME280;15244;49.088;11.886;2023-02-15T05:26:48;97060.28;;;3.59;53.57
27425;BME280;15244;49.088;11.886;2023-02-15T05:32:08;97050.91;;;3.57;53.51
27425;BME280;15244;49.088;11.886;2023-02-15T05:37:10;97060.59;;;3.58;53.50
27425;BME280;15244;49.088;11.886;2023-02-15T05:42:11;97056.28;;;3.57;53.39
27425;BME280;15244;49.088;11.886;2023-02-15T05:47:13;97068.19;;;3.56;53.53
27425;BME280;15244;49.088;11.886;2023-02-15T05:52:14;97070.72;;;3.52;53.36
27425;BME280;15244;49.088;11.886;2023-02-15T05:57:16;97067.41;;;3.55;53.73
27425;BME280;15244;49.088;11.886;2023-02-15T06:02:17;97068.97;;;3.56;53.42
27425;BME280;15244;49.088;11.886;2023-02-15T06:07:19;97083.59;;;3.55;53.68
27425;BME280;15244;49.088;11.886;2023-02-15T06:12:21;97078.19;;;3.55;53.46
27425;BME280;15244;49.088;11.886;2023-02-15T06:17:23;97085.97;;;3.57;53.40
27425;BME280;15244;49.088;11.886;2023-02-15T06:22:24;97094.66;;;3.54;53.37
27425;BME280;15244;49.088;11.886;2023-02-15T06:27:26;97081.00;;;3.50;53.53
27425;BME280;15244;49.088;11.886;2023-02-15T06:32:27;97085.91;;;3.48;53.38
27425;BME280;15244;49.088;11.886;2023-02-15T06:37:29;97079.38;;;3.49;53.20
27425;BME280;15244;49.088;11.886;2023-02-15T06:42:30;97087.47;;;3.49;53.44
27425;BME280;15244;49.088;11.886;2023-02-15T06:47:32;97093.97;;;3.48;53.40
27425;BME280;15244;49.088;11.886;2023-02-15T06:52:34;97092.88;;;3.49;53.40
27425;BME280;15244;49.088;11.886;2023-02-15T06:57:35;97105.88;;;3.47;53.09
27425;BME280;15244;49.088;11.886;2023-02-15T07:02:37;97099.00;;;3.41;52.94
27425;BME280;15244;49.088;11.886;2023-02-15T07:07:38;97096.91;;;3.38;52.98
27425;BME280;15244;49.088;11.886;2023-02-15T07:12:40;97088.81;;;3.38;53.19
27425;BME280;15244;49.088;11.886;2023-02-15T07:17:46;97077.25;;;3.37;53.17
27425;BME280;15244;49.088;11.886;2023-02-15T07:22:48;97074.22;;;3.39;53.02
27425;BME280;15244;49.088;11.886;2023-02-15T07:27:56;97074.22;;;3.39;52.94
27425;BME280;15244;49.088;11.886;2023-02-15T07:32:59;97069.94;;;3.38;53.15
27425;BME280;15244;49.088;11.886;2023-02-15T07:38:20;97069.44;;;3.36;53.45
27425;BME280;15244;49.088;11.886;2023-02-15T07:43:21;97069.16;;;3.37;53.48
27425;BME280;15244;49.088;11.886;2023-02-15T07:48:23;97062.16;;;3.36;53.25
27425;BME280;15244;49.088;11.886;2023-02-15T07:53:25;97068.38;;;3.37;53.23
27425;BME280;15244;49.088;11.886;2023-02-15T07:58:26;97074.22;;;3.39;53.65
27425;BME280;15244;49.088;11.886;2023-02-15T08:03:48;97067.44;;;3.41;53.46
27425;BME280;15244;49.088;11.886;2023-02-15T08:08:51;97070.63;;;3.43;53.44
27425;BME280;15244;49.088;11.886;2023-02-15T08:18:59;97067.53;;;3.50;53.90
27425;BME280;15244;49.088;11.886;2023-02-15T08:24:02;97067.41;;;3.55;53.49
27425;BME280;15244;49.088;11.886;2023-02-15T08:29:04;97067.56;;;3.59;53.64
27425;BME280;15244;49.088;11.886;2023-02-15T08:34:07;97061.09;;;3.60;53.67
27425;BME280;15244;49.088;11.886;2023-02-15T08:39:08;97053.81;;;3.60;53.57
27425;BME280;15244;49.088;11.886;2023-02-15T08:44:10;97062.38;;;3.62;53.40
27425;BME280;15244;49.088;11.886;2023-02-15T08:49:15;97072.84;;;3.64;53.36
27425;BME280;15244;49.088;11.886;2023-02-15T08:54:20;97080.69;;;3.52;53.25
27425;BME280;15244;49.088;11.886;2023-02-15T08:59:22;97080.91;;;3.41;53.29
27425;BME280;15244;49.088;11.886;2023-02-15T09:04:24;97076.00;;;3.43;53.75
27425;BME280;15244;49.088;11.886;2023-02-15T09:09:26;97076.00;;;3.43;53.55
27425;BME280;15244;49.088;11.886;2023-02-15T09:14:27;97077.91;;;3.43;53.35
27425;BME280;15244;49.088;11.886;2023-02-15T09:19:29;97073.44;;;3.38;53.15
27425;BME280;15244;49.088;11.886;2023-02-15T09:24:32;97075.16;;;3.34;53.17
27425;BME280;15244;49.088;11.886;2023-02-15T09:29:34;97069.69;;;3.25;53.40
27425;BME280;15244;49.088;11.886;2023-02-15T09:34:36;97073.38;;;3.30;53.68
27425;BME280;15244;49.088;11.886;2023-02-15T09:39:40;97074.66;;;3.32;53.48
27425;BME280;15244;49.088;11.886;2023-02-15T09:55:32;97079.31;;;3.40;53.74
27425;BME280;15244;49.088;11.886;2023-02-15T10:00:47;97075.41;;;3.46;53.17
27425;BME280;15244;49.088;11.886;2023-02-15T10:11:24;97086.47;;;3.59;53.68
27425;BME280;15244;49.088;11.886;2023-02-15T10:23:07;97070.81;;;3.69;53.87
27425;BME280;15244;49.088;11.886;2023-02-15T10:27:49;97070.13;;;3.78;53.95
27425;BME280;15244;49.088;11.886;2023-02-15T10:33:03;97061.56;;;3.84;54.02
27425;BME280;15244;49.088;11.886;2023-02-15T10:49:19;97063.72;;;3.96;54.21
27425;BME280;15244;49.088;11.886;2023-02-15T10:54:45;97048.19;;;4.02;53.46
27425;BME280;15244;49.088;11.886;2023-02-15T11:05:43;97046.50;;;4.06;53.43
27425;BME280;15244;49.088;11.886;2023-02-15T11:10:54;97039.47;;;4.05;53.71
27425;BME280;15244;49.088;11.886;2023-02-15T11:16:02;97030.31;;;4.06;53.45
27425;BME280;15244;49.088;11.886;2023-02-15T11:21:11;97020.78;;;4.08;53.34
27425;BME280;15244;49.088;11.886;2023-02-15T11:26:32;97009.66;;;4.10;53.40
27425;BME280;15244;49.088;11.886;2023-02-15T11:31:45;97004.97;;;4.16;53.16
27425;BME280;15244;49.088;11.886;2023-02-15T11:36:49;96994.63;;;4.18;53.22
27425;BME280;15244;49.088;11.886;2023-02-15T11:41:53;96998.59;;;4.20;53.37
27425;BME280;15244;49.088;11.886;2023-02-15T11:46:56;96992.91;;;4.22;53.42
27425;BME280;15244;49.088;11.886;2023-02-15T11:52:00;96984.50;;;4.23;53.49
27425;BME280;15244;49.088;11.886;2023-02-15T11:57:15;96978.00;;;4.24;53.70
27425;BME280;15244;49.088;11.886;2023-02-15T12:02:21;96976.56;;;4.27;53.47
27425;BME280;15244;49.088;11.886;2023-02-15T12:07:26;96974.06;;;4.30;53.42
27425;BME280;15244;49.088;11.886;2023-02-15T12:12:32;96971.81;;;4.32;52.93
27425;BME280;15244;49.088;11.886;2023-02-15T12:17:38;96964.53;;;4.33;53.45
27425;BME280;15244;49.088;11.886;2023-02-15T12:22:47;96955.81;;;4.36;53.00
27425;BME280;15244;49.088;11.886;2023-02-15T12:27:50;96950.56;;;4.40;53.98
27425;BME280;15244;49.088;11.886;2023-02-15T12:43:36;96943.59;;;4.47;53.48
27425;BME280;15244;49.088;11.886;2023-02-15T12:48:38;96942.16;;;4.50;53.89
27425;BME280;15244;49.088;11.886;2023-02-15T12:53:41;96937.25;;;4.52;53.65
27425;BME280;15244;49.088;11.886;2023-02-15T12:58:45;96933.28;;;4.58;53.38
27425;BME280;15244;49.088;11.886;2023-02-15T13:04:01;96918.34;;;4.61;52.92
27425;BME280;15244;49.088;11.886;2023-02-15T13:09:15;96921.53;;;4.63;53.49
27425;BME280;15244;49.088;11.886;2023-02-15T13:14:21;96918.53;;;4.64;53.21
27425;BME280;15244;49.088;11.886;2023-02-15T13:19:40;96909.94;;;4.62;53.20
27425;BME280;15244;49.088;11.886;2023-02-15T13:24:47;96918.19;;;4.66;53.29
27425;BME280;15244;49.088;11.886;2023-02-15T13:29:51;96915.03;;;4.64;53.50
27425;BME280;15244;49.088;11.886;2023-02-15T13:34:59;96916.31;;;4.66;53.63
27425;BME280;15244;49.088;11.886;2023-02-15T13:40:22;96916.78;;;4.68;53.65
27425;BME280;15244;49.088;11.886;2023-02-15T13:51:21;96893.44;;;4.64;53.33
27425;BME280;15244;49.088;11.886;2023-02-15T13:56:28;96891.53;;;4.64;53.72
27425;BME280;15244;49.088;11.886;2023-02-15T14:12:40;96890.88;;;4.59;53.35
27425;BME280;15244;49.088;11.886;2023-02-15T14:28:27;96894.88;;;4.61;53.48
27425;BME280;15244;49.088;11.886;2023-02-15T14:33:37;96884.38;;;4.60;53.19
27425;BME280;15244;49.088;11.886;2023-02-15T14:38:47;96896.75;;;4.61;52.99
27425;BME280;15244;49.088;11.886;2023-02-15T14:44:03;96909.31;;;4.56;53.35
27425;BME280;15244;49.088;11.886;2023-02-15T14:49:13;96902.94;;;4.52;53.33
27425;BME280;15244;49.088;11.886;2023-02-15T14:59:21;96887.06;;;4.51;53.33
27425;BME280;15244;49.088;11.886;2023-02-15T15:04:29;96882.44;;;4.51;53.76
27425;BME280;15244;49.088;11.886;2023-02-15T15:09:33;96874.03;;;4.53;53.48
27425;BME280;15244;49.088;11.886;2023-02-15T15:14:39;96877.53;;;4.53;53.59
27425;BME280;15244;49.088;11.886;2023-02-15T15:24:59;96886.72;;;4.52;53.68
27425;BME280;15244;49.088;11.886;2023-02-15T15:30:01;96890.06;;;4.49;53.26
27425;BME280;15244;49.088;11.886;2023-02-15T15:51:20;96884.97;;;4.48;53.38
27425;BME280;15244;49.088;11.886;2023-02-15T15:56:27;96886.72;;;4.44;53.42
27425;BME280;15244;49.088;11.886;2023-02-15T16:01:37;96883.06;;;4.40;53.23
27425;BME280;15244;49.088;11.886;2023-02-15T16:06:41;96877.50;;;4.36;53.35
27425;BME280;15244;49.088;11.886;2023-02-15T16:11:43;96872.25;;;4.31;53.22
27425;BME280;15244;49.088;11.886;2023-02-15T16:16:52;96872.06;;;4.27;53.37
27425;BME280;15244;49.088;11.886;2023-02-15T16:21:57;96868.88;;;4.25;53.53
27425;BME280;15244;49.088;11.886;2023-02-15T16:32:18;96865.25;;;4.21;53.24
27425;BME280;15244;49.088;11.886;2023-02-15T16:37:23;96876.81;;;4.22;53.25
27425;BME280;15244;49.088;11.886;2023-02-15T16:42:27;96875.84;;;4.18;53.50
27425;BME280;15244;49.088;11.886;2023-02-15T16:47:30;96885.38;;;4.15;53.70
27425;BME280;15244;49.088;11.886;2023-02-15T16:52:34;96886.50;;;4.14;53.43
27425;BME280;15244;49.088;11.886;2023-02-15T16:57:37;96880.31;;;4.13;53.73
27425;BME280;15244;49.088;11.886;2023-02-15T17:02:53;96890.91;;;4.10;53.45
27425;BME280;15244;49.088;11.886;2023-02-15T17:08:24;96894.25;;;4.07;53.28
27425;BME280;15244;49.088;11.886;2023-02-15T17:13:27;96891.38;;;4.03;53.75
27425;BME280;15244;49.088;11.886;2023-02-15T17:18:30;96891.69;;;4.02;53.96
27425;BME280;15244;49.088;11.886;2023-02-15T17:23:36;96890.91;;;4.01;53.51
27425;BME280;15244;49.088;11.886;2023-02-15T17:28:50;96898.22;;;4.01;53.56
27425;BME280;15244;49.088;11.886;2023-02-15T17:33:52;96902.63;;;3.97;53.69
27425;BME280;15244;49.088;11.886;2023-02-15T17:43:57;96904.03;;;3.94;53.92
27425;BME280;15244;49.088;11.886;2023-02-15T17:48:59;96901.66;;;3.93;53.96
27425;BME280;15244;49.088;11.886;2023-02-15T17:54:02;96910.84;;;3.91;54.08
27425;BME280;15244;49.088;11.886;2023-02-15T17:59:22;96907.22;;;3.87;54.01
27425;BME280;15244;49.088;11.886;2023-02-15T18:04:24;96899.41;;;3.86;54.01
27425;BME280;15244;49.088;11.886;2023-02-15T18:09:44;96916.88;;;3.88;54.06
27425;BME280;15244;49.088;11.886;2023-02-15T18:15:05;96918.00;;;3.87;54.06
27425;BME280;15244;49.088;11.886;2023-02-15T18:20:19;96916.09;;;3.88;53.96
27425;BME280;15244;49.088;11.886;2023-02-15T18:25:22;96919.88;;;3.87;54.21
27425;BME280;15244;49.088;11.886;2023-02-15T18:30:26;96911.00;;;3.86;53.85
27425;BME280;15244;49.088;11.886;2023-02-15T18:35:30;96914.31;;;3.83;54.29
27425;BME280;15244;49.088;11.886;2023-02-15T18:40:32;96911.63;;;3.83;54.08
27425;BME280;15244;49.088;11.886;2023-02-15T18:45:34;96928.59;;;3.84;53.91
27425;BME280;15244;49.088;11.886;2023-02-15T18:50:37;96926.53;;;3.81;54.16
27425;BME280;15244;49.088;11.886;2023-02-15T18:55:39;96935.41;;;3.81;54.40
27425;BME280;15244;49.088;11.886;2023-02-15T19:00:41;96926.81;;;3.79;53.75
27425;BME280;15244;49.088;11.886;2023-02-15T19:05:45;96936.81;;;3.79;54.27
27425;BME280;15244;49.088;11.886;2023-02-15T19:10:47;96930.94;;;3.77;54.27
27425;BME280;15244;49.088;11.886;2023-02-15T19:15:48;96935.53;;;3.76;54.12
27425;BME280;15244;49.088;11.886;2023-02-15T19:20:50;96932.97;;;3.71;54.25
27425;BME280;15244;49.088;11.886;2023-02-15T19:25:52;96933.59;;;3.68;54.10
27425;BME280;15244;49.088;11.886;2023-02-15T19:30:54;96926.13;;;3.65;54.49
27425;BME280;15244;49.088;11.886;2023-02-15T19:35:56;96922.44;;;3.61;53.63
27425;BME280;15244;49.088;11.886;2023-02-15T19:41:00;96921.47;;;3.57;54.25
27425;BME280;15244;49.088;11.886;2023-02-15T19:46:04;96916.69;;;3.54;53.98
27425;BME280;15244;49.088;11.886;2023-02-15T19:51:07;96913.84;;;3.50;54.16
27425;BME280;15244;49.088;11.886;2023-02-15T19:56:27;96910.16;;;3.46;54.14
27425;BME280;15244;49.088;11.886;2023-02-15T20:01:29;96902.81;;;3.38;53.89
27425;BME280;15244;49.088;11.886;2023-02-15T20:06:31;96900.41;;;3.36;54.44
27425;BME280;15244;49.088;11.886;2023-02-15T20:11:32;96909.00;;;3.38;54.46
27425;BME280;15244;49.088;11.886;2023-02-15T20:16:34;96899.00;;;3.39;54.07
27425;BME280;15244;49.088;11.886;2023-02-15T20:21:36;96903.59;;;3.38;54.39
27425;BME280;15244;49.088;11.886;2023-02-15T20:26:37;96895.03;;;3.36;54.46
27425;BME280;15244;49.088;11.886;2023-02-15T20:31:39;96899.00;;;3.39;54.54
27425;BME280;15244;49.088;11.886;2023-02-15T20:36:41;96883.16;;;3.37;54.41
27425;BME280;15244;49.088;11.886;2023-02-15T20:41:43;96892.03;;;3.38;54.24
27425;BME280;15244;49.088;11.886;2023-02-15T20:46:50;96900.41;;;3.36;54.08
27425;BME280;15244;49.088;11.886;2023-02-15T20:51:54;96907.72;;;3.36;54.33
27425;BME280;15244;49.088;11.886;2023-02-15T20:56:56;96906.91;;;3.35;54.34
27425;BME280;15244;49.088;11.886;2023-02-15T21:02:00;96897.53;;;3.33;54.15
27425;BME280;15244;49.088;11.886;2023-02-15T21:07:03;96885.97;;;3.32;54.11
27425;BME280;15244;49.088;11.886;2023-02-15T21:12:05;96886.56;;;3.29;54.04
27425;BME280;15244;49.088;11.886;2023-02-15T21:17:10;96887.81;;;3.23;54.09
27425;BME280;15244;49.088;11.886;2023-02-15T21:22:14;96885.72;;;3.20;54.13
27425;BME280;15244;49.088;11.886;2023-02-15T21:27:16;96881.13;;;3.20;54.26
27425;BME280;15244;49.088;11.886;2023-02-15T21:32:19;96888.09;;;3.21;54.70
27425;BME280;15244;49.088;11.886;2023-02-15T21:37:29;96887.31;;;3.21;54.39
27425;BME280;15244;49.088;11.886;2023-02-15T21:42:32;96878.72;;;3.19;54.31
27425;BME280;15244;49.088;11.886;2023-02-15T21:47:52;96876.53;;;3.21;54.27
27425;BME280;15244;49.088;11.886;2023-02-15T21:52:53;96878.84;;;3.14;54.31
27425;BME280;15244;49.088;11.886;2023-02-15T21:57:55;96877.28;;;3.13;54.52
27425;BME280;15244;49.088;11.886;2023-02-15T22:02:58;96876.78;;;3.11;54.24
27425;BME280;15244;49.088;11.886;2023-02-15T22:08:01;96867.13;;;3.10;54.20
27425;BME280;15244;49.088;11.886;2023-02-15T22:13:02;96866.34;;;3.09;54.28
27425;BME280;15244;49.088;11.886;2023-02-15T22:18:04;96874.41;;;3.09;54.77
27425;BME280;15244;49.088;11.886;2023-02-15T22:23:06;96874.41;;;3.09;54.60
27425;BME280;15244;49.088;11.886;2023-02-15T22:28:12;96872.19;;;3.11;54.58
27425;BME280;15244;49.088;11.886;2023-02-15T22:33:23;96868.69;;;3.11;54.38
27425;BME280;15244;49.088;11.886;2023-02-15T22:38:44;96872.31;;;3.06;54.38
27425;BME280;15244;49.088;11.886;2023-02-15T22:43:46;96866.91;;;3.06;54.32
27425;BME280;15244;49.088;11.886;2023-02-15T22:48:48;96869.94;;;3.04;54.42
27425;BME280;15244;49.088;11.886;2023-02-15T22:53:50;96867.03;;;3.01;54.42
27425;BME280;15244;49.088;11.886;2023-02-15T22:58:58;96866.38;;;2.95;54.68
27425;BME280;15244;49.088;11.886;2023-02-15T23:04:01;96856.09;;;2.97;54.59
27425;BME280;15244;49.088;11.886;2023-02-15T23:09:04;96862.28;;;2.98;54.38
27425;BME280;15244;49.088;11.886;2023-02-15T23:14:22;96869.56;;;2.97;54.73
27425;BME280;15244;49.088;11.886;2023-02-15T23:19:25;96874.94;;;2.97;54.77
27425;BME280;15244;49.088;11.886;2023-02-15T23:24:29;96874.16;;;2.97;54.57
27425;BME280;15244;49.088;11.886;2023-02-15T23:29:31;96873.66;;;2.95;54.55
27425;BME280;15244;49.088;11.886;2023-02-15T23:34:33;96872.88;;;2.94;55.11
27425;BME280;15244;49.088;11.886;2023-02-15T23:39:34;96877.94;;;2.96;54.72
27425;BME280;15244;49.088;11.886;2023-02-15T23:44:54;96869.84;;;2.96;54.97
27425;BME280;15244;49.088;11.886;2023-02-15T23:49:56;96864.97;;;2.98;54.85
27425;BME280;15244;49.088;11.886;2023-02-15T23:54:58;96865.97;;;3.02;54.77
27425;BME280;15244;49.088;11.886;2023-02-15T23:59:59;96870.56;;;3.01;54.95
